Aviation Digital Data Service (ADDS)

Output produced by METARs form (0111 UTC 24 August 2017)
found at http://www.aviationweather.gov/adds/metars/
 
KILE 240056Z AUTO 03006KT 10SM -RA SCT065 BKN095 23/23 A2994 RMK AO2 SLP145 T02330228 PNO $
KILE 232356Z AUTO 02003KT 10SM -RA SCT070 OVC090 23/22 A2994 RMK AO2 LTG DSNT NE AND E TSE09B11E46 SLP144 6//// T02280217 10350 20228 53006 PNO $
KILE 232311Z AUTO 36004KT 10SM VCTS RA FEW005 BKN041 OVC070 23/23 A2994 RMK AO2 LTG DSNT NW-E TSE09B11 PNO $
KILE 232256Z AUTO 31004KT 6SM TSRA BR FEW007 BKN060 OVC080 23/22 A2994 RMK AO2 LTG DSNT E AND W AND NW TSE35B37 SLP145 T02280222 PNO $
KILE 232237Z AUTO 03007KT 4SM +TSRA BR OVC060 23/22 A2995 RMK AO2 LTG DSNT ALQDS TSE35B37 PNO $
KILE 232156Z AUTO 22010G23KT 10SM -TSRA OVC060 27/22 A2991 RMK AO2 LTG DSNT ALQDS TSB23RAB33 SLP133 T02670217 PNO $
KILE 232134Z AUTO 22014G20KT 10SM VCTS -RA FEW049 BKN060 OVC090 28/22 A2992 RMK AO2 LTG DSNT ALQDS TSB23RAB33 PNO $
KILE 231956Z AUTO 03009KT 10SM FEW055 SCT070 34/22 A2993 RMK AO2 LTG DSNT SW SLP133 T03440217 PNO $
KILE 231856Z AUTO 36012KT 10SM FEW049 34/22 A2995 RMK AO2 LTG DSNT SW AND W SLP141 T03440222 PNO $
KILE 231756Z AUTO VRB06KT 10SM CLR 33/22 A2999 RMK AO2 LTG DSNT S SLP156 6//// T03280222 10328 20256 58009 PNO $
KILE 231656Z AUTO 32007KT 10SM CLR 32/22 A3002 RMK AO2 SLP163 T03220217 PNO $
KILE 231556Z AUTO 31005KT 10SM CLR 31/21 A3002 RMK AO2 SLP166 T03060211 PNO $
KILE 231456Z AUTO VRB04KT 10SM CLR 30/21 A3002 RMK AO2 SLP165 6//// T03000211 50002 TSNO PNO $
KILE 231356Z AUTO VRB03KT 10SM FEW075 28/21 A3002 RMK AO2 SLP166 T02780211 PNO $
KILE 231256Z AUTO 19005KT 10SM CLR 26/21 A3002 RMK AO2 SLP165 T02560211 PNO $
KILE 231156Z AUTO 00000KT 10SM FEW090 24/21 A3001 RMK AO2 SLP163 6//// 7//// T02440206 10272 20244 53004 PNO $
KILE 231056Z AUTO 21004KT 10SM SCT100 25/21 A3001 RMK AO2 SLP160 T02500206 PNO $
KILE 230956Z AUTO 22003KT 10SM CLR 26/21 A3001 RMK AO2 SLP160 T02560211 PNO $
KILE 230856Z AUTO 22005KT 10SM CLR 26/21 A3000 RMK AO2 SLP158 6//// T02610211 55004 PNO $
KILE 230756Z AUTO 21005KT 10SM CLR 26/21 A3000 RMK AO2 SLP157 T02610211 PNO $
KILE 230656Z AUTO 19006KT 10SM CLR 26/21 A3001 RMK AO2 SLP161 T02610206 PNO $
KILE 230556Z AUTO 18007KT 10SM CLR 27/20 A3002 RMK AO2 SLP163 6//// T02720200 10350 20272 403670239 51008 PNO $
KILE 230456Z AUTO 16009KT 10SM CLR 29/19 A3001 RMK AO2 SLP161 T02890194 PNO $
KILE 230356Z AUTO 14004KT 10SM CLR 29/18 A3001 RMK AO2 SLP160 T02940178 PNO $
KILE 230256Z AUTO 13004KT 10SM CLR 30/18 A2999 RMK AO2 SLP156 6//// T03000183 51009 PNO $
KILE 230156Z AUTO 14004KT 10SM CLR 31/18 A2999 RMK AO2 SLP156 T03110183 PNO $